createdAt,value
2017-10-29T00:00:11.723Z,4.60
2017-10-29T00:02:39.995Z,3.70
2017-10-29T00:05:08.294Z,4.70
2017-10-29T00:07:36.608Z,3.97
2017-10-29T00:10:04.868Z,5.60
2017-10-29T00:12:33.131Z,4.37
2017-10-29T00:15:01.401Z,4.10
2017-10-29T00:17:29.624Z,4.50
2017-10-29T00:19:57.856Z,4.35
2017-10-29T00:22:26.895Z,3.75
2017-10-29T00:24:55.108Z,4.00
2017-10-29T00:27:24.112Z,4.57
2017-10-29T00:29:52.393Z,3.47
2017-10-29T00:32:20.621Z,3.83
2017-10-29T00:34:49.601Z,4.50
2017-10-29T00:37:17.993Z,3.65
2017-10-29T00:39:46.221Z,3.47
2017-10-29T00:42:14.449Z,3.57
2017-10-29T00:44:42.713Z,3.55
2017-10-29T00:47:10.977Z,3.00
2017-10-29T00:49:39.205Z,3.60
2017-10-29T00:52:07.661Z,4.47
2017-10-29T00:54:35.889Z,3.20
2017-10-29T00:57:04.125Z,3.35
2017-10-29T00:59:32.385Z,2.78
2017-10-29T01:02:01.380Z,2.65
2017-10-29T01:04:29.658Z,2.58
2017-10-29T01:06:58.696Z,3.03
2017-10-29T01:09:27.015Z,2.78
2017-10-29T01:11:55.271Z,2.90
2017-10-29T01:14:24.336Z,3.50
2017-10-29T01:16:52.619Z,2.70
2017-10-29T01:19:20.889Z,3.65
2017-10-29T01:21:49.163Z,3.03
2017-10-29T01:24:17.431Z,3.00
2017-10-29T01:26:45.723Z,2.83
2017-10-29T01:29:14.747Z,2.85
2017-10-29T01:31:43.035Z,3.15
2017-10-29T01:34:11.291Z,3.58
2017-10-29T01:36:39.560Z,3.40
2017-10-29T01:39:07.851Z,3.12
2017-10-29T01:41:36.881Z,3.33
2017-10-29T01:44:05.160Z,3.47
2017-10-29T01:46:33.451Z,3.90
2017-10-29T01:49:02.611Z,3.90
2017-10-29T01:51:31.447Z,3.50
2017-10-29T01:53:59.704Z,4.03
2017-10-29T01:56:28.003Z,3.95
2017-10-29T01:58:56.268Z,3.65
2017-10-29T02:01:24.552Z,3.80
2017-10-29T02:03:53.629Z,4.00
2017-10-29T02:06:21.953Z,4.05
2017-10-29T02:08:50.211Z,4.35
2017-10-29T02:11:18.465Z,4.37
2017-10-29T02:13:46.746Z,3.90
2017-10-29T02:16:15.000Z,4.53
2017-10-29T02:18:43.291Z,4.18
2017-10-29T02:21:11.557Z,4.37
2017-10-29T02:23:40.830Z,4.12
2017-10-29T02:26:09.087Z,3.70
2017-10-29T02:28:37.338Z,3.65
2017-10-29T02:31:05.615Z,3.25
2017-10-29T02:33:33.872Z,3.12
2017-10-29T02:36:02.143Z,2.72
2017-10-29T02:38:31.175Z,2.33
2017-10-29T02:40:59.488Z,2.60
2017-10-29T02:43:28.568Z,2.85
2017-10-29T02:45:57.608Z,2.10
2017-10-29T02:48:25.896Z,1.67
2017-10-29T02:50:54.163Z,2.40
2017-10-29T02:53:22.440Z,1.90
2017-10-29T02:55:51.476Z,2.42
2017-10-29T02:58:19.965Z,2.45
2017-10-29T03:00:48.212Z,2.30
2017-10-29T03:03:16.471Z,2.00
2017-10-29T03:05:44.743Z,2.17
2017-10-29T03:08:13.007Z,1.77
2017-10-29T03:10:41.275Z,2.40
2017-10-29T03:13:10.295Z,1.85
2017-10-29T03:15:38.595Z,1.80
2017-10-29T03:18:06.860Z,1.73
2017-10-29T03:20:35.118Z,1.50
2017-10-29T03:23:03.415Z,1.43
2017-10-29T03:25:31.688Z,1.40
2017-10-29T03:27:59.951Z,1.80
2017-10-29T03:30:28.271Z,1.10
2017-10-29T03:32:56.613Z,1.40
2017-10-29T03:35:24.868Z,1.48
2017-10-29T03:37:53.194Z,1.20
2017-10-29T03:40:21.512Z,1.20
2017-10-29T03:42:49.776Z,1.40
2017-10-29T03:45:18.055Z,1.77
2017-10-29T03:47:46.319Z,1.35
2017-10-29T03:50:15.665Z,1.37
2017-10-29T03:52:43.928Z,1.95
2017-10-29T03:55:12.208Z,1.50
2017-10-29T03:57:40.472Z,1.90
2017-10-29T04:00:08.732Z,1.70
2017-10-29T04:02:37.016Z,1.83
2017-10-29T04:05:06.034Z,2.12
2017-10-29T04:07:34.315Z,1.75
2017-10-29T04:10:02.575Z,1.55
2017-10-29T04:12:30.868Z,1.75
2017-10-29T04:15:00.020Z,2.00
2017-10-29T04:17:28.326Z,1.85
2017-10-29T04:19:57.370Z,1.62
2017-10-29T04:22:25.645Z,1.52
2017-10-29T04:24:53.924Z,1.60
2017-10-29T04:27:22.972Z,1.20
2017-10-29T04:29:51.282Z,1.20
2017-10-29T04:32:19.555Z,1.37
2017-10-29T04:34:47.819Z,1.15
2017-10-29T04:37:16.113Z,1.40
2017-10-29T04:39:44.373Z,1.40
2017-10-29T04:42:12.656Z,1.30
2017-10-29T04:44:40.922Z,1.67
2017-10-29T04:47:10.204Z,1.70
2017-10-29T04:49:39.242Z,1.62
2017-10-29T04:52:07.503Z,1.50
2017-10-29T04:54:35.781Z,1.40
2017-10-29T04:57:04.035Z,1.50
2017-10-29T04:59:32.314Z,1.20
2017-10-29T05:02:01.352Z,2.28
2017-10-29T05:04:29.657Z,1.90
2017-10-29T05:06:57.915Z,1.58
2017-10-29T05:09:26.212Z,1.75
2017-10-29T05:11:55.254Z,1.40
2017-10-29T05:14:23.531Z,1.62
2017-10-29T05:16:51.816Z,1.35
2017-10-29T05:19:20.075Z,1.40
2017-10-29T05:21:48.358Z,1.40
2017-10-29T05:24:16.628Z,1.83
2017-10-29T05:26:44.896Z,1.35
2017-10-29T05:29:13.199Z,1.60
2017-10-29T05:31:41.477Z,1.60
2017-10-29T05:34:10.515Z,1.48
2017-10-29T05:36:38.780Z,1.67
2017-10-29T05:39:07.251Z,1.50
2017-10-29T05:41:35.511Z,2.10
2017-10-29T05:44:03.770Z,1.60
2017-10-29T05:46:32.043Z,1.87
2017-10-29T05:49:00.303Z,1.30
2017-10-29T05:51:28.583Z,1.40
2017-10-29T05:53:57.609Z,1.90
2017-10-29T05:56:26.319Z,1.35
2017-10-29T05:58:55.359Z,1.23
2017-10-29T06:01:23.645Z,1.42
2017-10-29T06:03:51.924Z,1.15
2017-10-29T06:06:21.202Z,1.20
2017-10-29T06:08:49.479Z,1.23
2017-10-29T06:11:18.508Z,1.20
2017-10-29T06:13:46.818Z,1.12
2017-10-29T06:16:15.843Z,1.17
2017-10-29T06:18:44.099Z,1.05
2017-10-29T06:21:12.386Z,1.07
2017-10-29T06:23:40.651Z,0.80
2017-10-29T06:26:08.924Z,1.17
2017-10-29T06:28:37.183Z,1.00
2017-10-29T06:31:05.483Z,1.42
2017-10-29T06:33:33.747Z,1.60
2017-10-29T06:36:02.004Z,1.12
2017-10-29T06:38:30.279Z,1.00
2017-10-29T06:40:58.549Z,0.75
2017-10-29T06:43:26.827Z,1.05
2017-10-29T06:45:55.690Z,0.80
2017-10-29T06:48:23.995Z,0.90
2017-10-29T06:50:53.046Z,0.87
2017-10-29T06:53:21.310Z,1.00
2017-10-29T06:55:49.591Z,0.60
2017-10-29T06:58:17.880Z,0.60
2017-10-29T07:00:46.159Z,0.77
2017-10-29T07:03:14.428Z,0.77
2017-10-29T07:05:42.745Z,0.80
2017-10-29T07:08:11.784Z,0.70
2017-10-29T07:10:40.051Z,0.70
2017-10-29T07:13:08.349Z,0.80
2017-10-29T07:15:37.371Z,0.60
2017-10-29T07:18:05.652Z,0.60
2017-10-29T07:20:33.923Z,0.57
2017-10-29T07:23:02.208Z,0.80
2017-10-29T07:25:30.487Z,0.95
2017-10-29T07:27:58.757Z,0.65
2017-10-29T07:30:27.039Z,0.45
2017-10-29T07:32:55.331Z,0.50
2017-10-29T07:35:23.659Z,0.60
2017-10-29T07:37:52.817Z,0.60
2017-10-29T07:40:21.106Z,0.60
2017-10-29T07:42:49.390Z,0.93
2017-10-29T07:45:17.656Z,0.80
2017-10-29T07:47:46.064Z,0.50
2017-10-29T07:50:14.331Z,1.00
2017-10-29T07:52:42.651Z,0.70
2017-10-29T07:55:10.943Z,0.70
2017-10-29T07:57:39.975Z,0.50
2017-10-29T08:00:08.259Z,0.77
2017-10-29T08:02:37.298Z,0.50
2017-10-29T08:05:05.579Z,0.60
2017-10-29T08:07:33.855Z,0.60
2017-10-29T08:10:02.172Z,0.98
2017-10-29T08:12:30.427Z,0.70
2017-10-29T08:14:58.698Z,0.70
2017-10-29T08:17:26.975Z,0.65
2017-10-29T08:19:55.248Z,1.10
2017-10-29T08:22:23.539Z,0.62
2017-10-29T08:24:52.608Z,0.60
2017-10-29T08:27:21.070Z,0.50
2017-10-29T08:29:49.337Z,0.97
2017-10-29T08:32:17.604Z,0.70
2017-10-29T08:34:46.647Z,0.80
2017-10-29T08:37:14.915Z,0.75
2017-10-29T08:39:43.200Z,0.93
2017-10-29T08:42:11.471Z,0.60
2017-10-29T08:44:40.533Z,0.60
2017-10-29T08:47:08.795Z,0.80
2017-10-29T08:49:37.059Z,0.70
2017-10-29T08:52:05.340Z,0.60
2017-10-29T08:54:34.374Z,0.70
2017-10-29T08:57:02.703Z,0.75
2017-10-29T08:59:30.966Z,0.80
2017-10-29T09:01:59.235Z,0.80
2017-10-29T09:04:27.526Z,0.85
2017-10-29T09:06:55.791Z,0.77
2017-10-29T09:09:24.101Z,0.52
2017-10-29T09:11:53.161Z,0.60
2017-10-29T09:14:21.464Z,0.85
2017-10-29T09:16:49.736Z,1.25
2017-10-29T09:19:17.995Z,0.43
2017-10-29T09:21:46.279Z,0.63
2017-10-29T09:24:14.571Z,0.80
2017-10-29T09:26:43.614Z,0.68
2017-10-29T09:29:11.883Z,1.20
2017-10-29T09:31:43.228Z,1.37
2017-10-29T09:34:11.511Z,0.80
2017-10-29T09:36:40.542Z,0.80
2017-10-29T09:39:08.828Z,0.90
2017-10-29T09:41:37.087Z,0.90
2017-10-29T09:44:05.373Z,0.95
2017-10-29T09:46:34.390Z,0.60
2017-10-29T09:49:02.697Z,0.70
2017-10-29T09:51:30.955Z,1.55
2017-10-29T09:53:59.206Z,0.83
2017-10-29T09:56:27.515Z,0.95
2017-10-29T09:58:55.780Z,1.20
2017-10-29T10:01:34.748Z,0.80
2017-10-29T10:04:21.013Z,1.33
2017-10-29T10:06:51.060Z,0.93
2017-10-29T10:09:19.334Z,0.90
2017-10-29T10:11:47.611Z,2.00
2017-10-29T10:14:16.045Z,0.95
2017-10-29T10:16:45.059Z,1.40
2017-10-29T10:19:13.335Z,1.15
2017-10-29T10:21:41.612Z,1.15
2017-10-29T10:24:11.418Z,2.08
2017-10-29T10:26:40.447Z,0.80
2017-10-29T10:29:08.720Z,1.48
2017-10-29T10:31:36.998Z,1.67
2017-10-29T10:34:05.267Z,1.37
2017-10-29T10:36:33.553Z,1.05
2017-10-29T10:39:02.597Z,0.70
2017-10-29T10:41:31.491Z,1.52
2017-10-29T10:43:59.763Z,1.35
2017-10-29T10:46:28.847Z,1.40
2017-10-29T10:48:57.899Z,1.10
2017-10-29T10:51:26.180Z,2.10
2017-10-29T10:53:55.228Z,2.10
2017-10-29T10:56:23.501Z,1.00
2017-10-29T10:58:51.795Z,1.45
2017-10-29T11:01:20.830Z,1.20
2017-10-29T11:03:49.315Z,2.23
2017-10-29T11:06:17.584Z,1.50
2017-10-29T11:08:45.846Z,1.12
2017-10-29T11:11:14.144Z,0.80
2017-10-29T11:13:42.407Z,1.17
2017-10-29T11:16:10.687Z,1.27
2017-10-29T11:18:38.954Z,2.33
2017-10-29T11:21:07.456Z,1.13
2017-10-29T11:23:35.715Z,2.20
2017-10-29T11:26:03.984Z,1.27
2017-10-29T11:28:33.036Z,2.00
2017-10-29T11:31:01.295Z,1.20
2017-10-29T11:33:29.580Z,1.35
2017-10-29T11:35:57.847Z,1.42
2017-10-29T11:38:26.936Z,1.50
2017-10-29T11:40:55.975Z,0.60
2017-10-29T11:43:24.238Z,1.00
2017-10-29T11:45:52.528Z,1.90
2017-10-29T11:48:20.803Z,0.90
2017-10-29T11:50:49.850Z,1.47
2017-10-29T11:53:18.106Z,1.60
2017-10-29T11:55:46.582Z,1.60
2017-10-29T11:58:14.856Z,1.60
2017-10-29T12:00:43.119Z,1.50
2017-10-29T12:03:13.950Z,1.87
2017-10-29T12:05:42.988Z,1.55
2017-10-29T12:08:11.271Z,1.40
2017-10-29T12:10:39.540Z,1.52
2017-10-29T12:13:08.621Z,1.50
2017-10-29T12:15:43.939Z,1.60
2017-10-29T12:18:12.807Z,1.70
2017-10-29T12:20:42.236Z,1.03
2017-10-29T12:23:10.671Z,1.12
2017-10-29T12:25:39.720Z,1.35
2017-10-29T12:28:07.988Z,1.55
2017-10-29T12:30:36.273Z,1.10
2017-10-29T12:33:05.304Z,1.20
2017-10-29T12:35:33.817Z,1.42
2017-10-29T12:38:02.078Z,1.13
2017-10-29T12:40:31.129Z,2.12
2017-10-29T12:42:59.401Z,1.00
2017-10-29T12:45:27.704Z,1.30
2017-10-29T12:47:55.993Z,1.02
2017-10-29T12:50:24.264Z,2.15
2017-10-29T12:52:52.777Z,1.35
2017-10-29T12:55:21.816Z,1.17
2017-10-29T12:57:50.086Z,1.30
2017-10-29T13:00:18.367Z,1.45
2017-10-29T13:02:46.634Z,1.20
2017-10-29T13:05:15.683Z,1.67
2017-10-29T13:07:43.951Z,0.95
2017-10-29T13:10:12.731Z,1.65
2017-10-29T13:12:41.008Z,1.12
2017-10-29T13:15:10.036Z,1.10
2017-10-29T13:17:38.319Z,1.70
2017-10-29T13:20:06.586Z,1.33
2017-10-29T13:22:34.888Z,1.15
2017-10-29T13:25:03.920Z,1.30
2017-10-29T13:27:32.233Z,1.85
2017-10-29T13:30:00.503Z,2.03
2017-10-29T13:32:28.780Z,1.02
2017-10-29T13:34:57.064Z,1.13
2017-10-29T13:37:25.338Z,1.25
2017-10-29T13:39:53.644Z,1.00
2017-10-29T13:42:21.928Z,1.58
2017-10-29T13:44:50.444Z,1.30
2017-10-29T13:47:18.707Z,1.30
2017-10-29T13:49:47.749Z,1.43
2017-10-29T13:52:16.024Z,1.70
2017-10-29T13:54:44.287Z,1.20
2017-10-29T13:57:12.576Z,0.80
2017-10-29T13:59:41.603Z,1.62
2017-10-29T14:02:10.108Z,1.30
2017-10-29T14:04:38.383Z,1.33
2017-10-29T14:07:07.411Z,2.30
2017-10-29T14:09:35.686Z,1.00
2017-10-29T14:12:04.179Z,1.10
2017-10-29T14:14:33.232Z,1.10
2017-10-29T14:17:01.515Z,1.15
2017-10-29T14:19:30.190Z,1.00
2017-10-29T14:21:58.447Z,1.55
2017-10-29T14:24:26.723Z,1.50
2017-10-29T14:26:55.774Z,1.00
2017-10-29T14:29:24.038Z,1.47
2017-10-29T14:31:52.327Z,1.52
2017-10-29T14:34:20.607Z,1.20
2017-10-29T14:36:48.899Z,0.93
2017-10-29T14:39:17.172Z,1.90
2017-10-29T14:41:45.435Z,1.73
2017-10-29T14:44:13.722Z,1.10
2017-10-29T14:46:41.986Z,1.60
2017-10-29T14:49:11.035Z,1.70
2017-10-29T14:51:39.295Z,1.00
2017-10-29T14:54:07.587Z,1.55
2017-10-29T14:56:36.611Z,1.10
2017-10-29T14:59:04.880Z,2.30
2017-10-29T15:01:33.159Z,0.80
2017-10-29T15:04:01.443Z,1.75
2017-10-29T15:06:29.707Z,1.25
2017-10-29T15:08:58.748Z,1.03
2017-10-29T15:11:27.064Z,1.90
2017-10-29T15:13:55.356Z,1.30
2017-10-29T15:16:23.631Z,1.15
2017-10-29T15:18:51.936Z,1.60
2017-10-29T15:21:20.190Z,1.40
2017-10-29T15:23:48.474Z,1.60
2017-10-29T15:26:17.517Z,0.93
2017-10-29T15:28:45.793Z,1.40
2017-10-29T15:31:14.051Z,1.30
2017-10-29T15:33:42.335Z,1.52
2017-10-29T15:36:11.371Z,1.85
2017-10-29T15:38:39.663Z,2.42
2017-10-29T15:41:08.730Z,1.17
2017-10-29T15:43:36.986Z,1.03
2017-10-29T15:46:06.791Z,1.20
2017-10-29T15:48:35.053Z,0.90
2017-10-29T15:51:04.088Z,1.33
2017-10-29T15:53:33.308Z,1.60
2017-10-29T15:56:01.651Z,1.40
2017-10-29T15:58:29.952Z,1.20
2017-10-29T16:00:58.984Z,1.35
2017-10-29T16:03:27.280Z,2.00
2017-10-29T16:05:55.548Z,1.42
2017-10-29T16:08:24.599Z,1.35
2017-10-29T16:10:53.639Z,1.70
2017-10-29T16:13:22.263Z,2.10
2017-10-29T16:15:50.531Z,1.02
2017-10-29T16:18:18.807Z,1.60
2017-10-29T16:20:47.852Z,1.08
2017-10-29T16:23:16.116Z,1.83
2017-10-29T16:25:44.387Z,1.20
2017-10-29T16:28:12.648Z,1.92
2017-10-29T16:30:40.958Z,1.23
2017-10-29T16:33:09.229Z,1.08
2017-10-29T16:35:37.488Z,1.20
2017-10-29T16:38:05.762Z,2.22
2017-10-29T16:40:34.028Z,1.63
2017-10-29T16:43:02.323Z,1.12
2017-10-29T16:45:31.225Z,1.80
2017-10-29T16:48:01.509Z,1.17
2017-10-29T16:50:30.544Z,1.83
2017-10-29T16:52:58.786Z,1.67
2017-10-29T16:55:27.071Z,1.75
2017-10-29T16:57:55.364Z,1.70
2017-10-29T17:00:23.638Z,2.28
2017-10-29T17:02:51.899Z,1.23
2017-10-29T17:05:20.940Z,1.60
2017-10-29T17:07:49.199Z,2.20
2017-10-29T17:10:17.516Z,1.37
2017-10-29T17:12:45.824Z,1.30
2017-10-29T17:15:14.078Z,1.00
2017-10-29T17:17:42.364Z,1.15
2017-10-29T17:20:10.651Z,1.15
2017-10-29T17:22:39.677Z,1.00
2017-10-29T17:25:07.932Z,1.60
2017-10-29T17:27:36.207Z,0.98
2017-10-29T17:30:04.470Z,1.25
2017-10-29T17:32:32.747Z,1.70
2017-10-29T17:35:01.004Z,1.40
2017-10-29T17:37:29.395Z,1.30
2017-10-29T17:39:58.423Z,2.55
2017-10-29T17:42:26.697Z,1.23
2017-10-29T17:44:54.966Z,1.12
2017-10-29T17:47:23.238Z,1.23
2017-10-29T17:49:51.508Z,1.40
2017-10-29T17:52:22.105Z,1.45
2017-10-29T17:54:50.514Z,0.80
2017-10-29T17:57:18.780Z,1.83
2017-10-29T17:59:47.043Z,1.33
2017-10-29T18:02:15.324Z,1.17
2017-10-29T18:04:43.579Z,0.90
2017-10-29T18:07:11.986Z,1.40
2017-10-29T18:09:40.248Z,4.70
2017-10-29T18:12:08.561Z,1.00
2017-10-29T18:14:37.756Z,1.20
2017-10-29T18:17:06.792Z,1.58
2017-10-29T18:19:35.835Z,1.25
2017-10-29T18:22:05.495Z,1.20
2017-10-29T18:24:33.784Z,0.93
2017-10-29T18:27:02.977Z,1.55
2017-10-29T18:29:35.039Z,1.10
2017-10-29T18:32:03.299Z,1.25
2017-10-29T18:34:31.600Z,0.97
2017-10-29T18:36:59.887Z,1.50
2017-10-29T18:39:28.143Z,1.25
2017-10-29T18:41:56.424Z,1.10
2017-10-29T18:44:24.688Z,1.15
2017-10-29T18:46:55.444Z,1.70
2017-10-29T18:49:25.481Z,1.40
2017-10-29T18:51:53.785Z,1.77
2017-10-29T18:54:22.075Z,1.27
2017-10-29T18:56:51.110Z,3.85
2017-10-29T18:59:19.375Z,1.80
2017-10-29T19:01:47.636Z,1.60
2017-10-29T19:04:15.936Z,1.40
2017-10-29T19:06:44.967Z,1.35
2017-10-29T19:09:13.232Z,1.73
2017-10-29T19:11:41.498Z,1.58
2017-10-29T19:14:09.755Z,2.03
2017-10-29T19:16:38.031Z,1.60
2017-10-29T19:19:06.301Z,1.30
2017-10-29T19:21:34.610Z,1.92
2017-10-29T19:24:02.871Z,2.10
2017-10-29T19:26:31.132Z,1.90
2017-10-29T19:28:59.406Z,1.33
2017-10-29T19:31:27.729Z,1.60
2017-10-29T19:33:56.006Z,1.67
2017-10-29T19:36:24.283Z,2.95
2017-10-29T19:38:53.488Z,1.55
2017-10-29T19:41:22.553Z,1.33
2017-10-29T19:43:50.956Z,1.67
2017-10-29T19:46:19.227Z,1.87
2017-10-29T19:48:48.269Z,1.60
2017-10-29T19:51:16.548Z,1.75
2017-10-29T19:53:44.803Z,1.57
2017-10-29T19:56:13.115Z,1.20
2017-10-29T19:58:41.380Z,1.85
2017-10-29T20:01:09.644Z,1.05
2017-10-29T20:03:37.921Z,1.77
2017-10-29T20:06:06.188Z,1.62
2017-10-29T20:08:34.463Z,2.00
2017-10-29T20:11:02.727Z,1.12
2017-10-29T20:13:31.055Z,1.23
2017-10-29T20:15:59.319Z,1.48
2017-10-29T20:18:27.632Z,1.50
2017-10-29T20:20:56.683Z,1.37
2017-10-29T20:23:24.962Z,1.60
2017-10-29T20:25:53.341Z,1.20
2017-10-29T20:28:21.583Z,1.20
2017-10-29T20:30:51.409Z,1.27
2017-10-29T20:33:20.426Z,2.00
2017-10-29T20:35:48.712Z,1.53
2017-10-29T20:38:16.989Z,2.10
2017-10-29T20:40:45.366Z,1.40
2017-10-29T20:43:13.631Z,2.58
2017-10-29T20:45:42.667Z,3.03
2017-10-29T20:48:10.984Z,1.60
2017-10-29T20:50:39.256Z,1.50
2017-10-29T20:53:07.511Z,1.33
2017-10-29T20:55:35.779Z,1.30
2017-10-29T20:58:04.099Z,1.42
2017-10-29T21:00:32.367Z,1.67
2017-10-29T21:03:01.388Z,2.15
2017-10-29T21:05:29.704Z,1.65
2017-10-29T21:07:57.964Z,1.35
2017-10-29T21:10:26.999Z,2.00
2017-10-29T21:12:55.291Z,1.70
2017-10-29T21:15:23.560Z,1.67
2017-10-29T21:17:51.843Z,1.83
2017-10-29T21:20:20.866Z,1.60
2017-10-29T21:22:49.176Z,1.08
2017-10-29T21:25:18.199Z,1.30
2017-10-29T21:27:46.467Z,1.60
2017-10-29T21:30:14.765Z,1.80
2017-10-29T21:32:43.020Z,1.87
2017-10-29T21:35:11.296Z,1.05
2017-10-29T21:37:40.320Z,1.60
2017-10-29T21:40:09.571Z,1.58
2017-10-29T21:42:38.587Z,1.93
2017-10-29T21:45:06.855Z,1.10
2017-10-29T21:47:35.140Z,1.50
2017-10-29T21:50:03.413Z,1.83
2017-10-29T21:52:33.199Z,2.00
2017-10-29T21:55:01.455Z,1.55
2017-10-29T21:57:29.752Z,1.30
2017-10-29T21:59:58.775Z,1.33
2017-10-29T22:02:27.035Z,1.40
2017-10-29T22:04:55.308Z,1.95
2017-10-29T22:07:23.583Z,1.55
2017-10-29T22:09:51.906Z,1.73
2017-10-29T22:12:20.175Z,1.70
2017-10-29T22:14:48.524Z,2.22
2017-10-29T22:17:16.779Z,1.97
2017-10-29T22:19:45.038Z,2.28
2017-10-29T22:22:13.327Z,2.12
2017-10-29T22:24:41.576Z,2.15
2017-10-29T22:27:09.875Z,2.20
2017-10-29T22:29:38.152Z,2.50
2017-10-29T22:32:06.417Z,1.80
2017-10-29T22:34:35.458Z,2.23
2017-10-29T22:37:03.739Z,2.60
2017-10-29T22:39:32.003Z,2.58
2017-10-29T22:42:00.272Z,1.70
2017-10-29T22:44:28.580Z,1.85
2017-10-29T22:46:56.842Z,1.90
2017-10-29T22:49:25.113Z,2.35
2017-10-29T22:51:53.411Z,2.50
2017-10-29T22:54:21.690Z,1.40
2017-10-29T22:56:49.958Z,2.10
2017-10-29T22:59:18.992Z,2.17
2017-10-29T23:01:47.291Z,2.47
2017-10-29T23:04:16.310Z,2.42
2017-10-29T23:06:47.487Z,2.30
2017-10-29T23:09:22.722Z,2.07
2017-10-29T23:11:51.800Z,1.30
2017-10-29T23:14:20.835Z,2.12
2017-10-29T23:16:49.107Z,1.65
2017-10-29T23:19:17.392Z,3.45
2017-10-29T23:21:47.158Z,2.12
2017-10-29T23:24:15.437Z,2.50
2017-10-29T23:26:43.691Z,2.65
2017-10-29T23:29:12.768Z,1.73
2017-10-29T23:31:41.028Z,2.25
2017-10-29T23:34:09.295Z,2.83
2017-10-29T23:36:37.571Z,2.60
2017-10-29T23:39:05.837Z,2.95
2017-10-29T23:41:34.124Z,3.25
2017-10-29T23:44:02.393Z,2.25
2017-10-29T23:46:30.671Z,2.70
2017-10-29T23:48:58.940Z,2.92
2017-10-29T23:51:27.188Z,2.83
2017-10-29T23:53:55.472Z,1.90
2017-10-29T23:56:23.744Z,1.60
2017-10-29T23:58:52.045Z,2.20
